Nulato, Alaska
Current Conditions -  °F | °C
As of 5:53 PM on Tuesday 21 Oct 2014 (Local Time) from PAKV Reporting Station
Overcast Overcast  
Wind Chill: 29°   Ceiling: 3100
Heat Index: 34°   Visibility: 10mi
Dew Point: 25°   Wind: 6mph
Humidity: 70%   Direction: 50°NE
Pressure: 29.57"   Gusts: NA
Location:  64.72°N, 158.13°W
Report Text: PAKV 220153Z AUTO 05005KT 10SM OVC031 01/M04 A2957 RMK AO2 SLP017 T00111039 TSNO
Loading
Personal Weather Stations






























Interactive Weather Map
Tropical Storm Tracking
New forecast layout! Learn more

10-Day Weather Forecast

Advertisements
Track Severe Weather on mobile